sensor_id;sensor_type;location;lat;lon;timestamp;P1;durP1;ratioP1;P2;durP2;ratioP2
38034;SDS011;23841;48.524;1.342;2023-04-15T00:01:01;2.78;;;1.17;;
38034;SDS011;23841;48.524;1.342;2023-04-15T00:03:26;2.25;;;0.90;;
38034;SDS011;23841;48.524;1.342;2023-04-15T00:05:52;2.78;;;1.48;;
38034;SDS011;23841;48.524;1.342;2023-04-15T00:08:17;3.22;;;1.33;;
38034;SDS011;23841;48.524;1.342;2023-04-15T00:10:44;2.70;;;1.30;;
38034;SDS011;23841;48.524;1.342;2023-04-15T00:13:10;2.33;;;1.20;;
38034;SDS011;23841;48.524;1.342;2023-04-15T00:15:36;2.42;;;1.10;;
38034;SDS011;23841;48.524;1.342;2023-04-15T00:18:02;2.38;;;1.20;;
38034;SDS011;23841;48.524;1.342;2023-04-15T00:20:28;2.83;;;1.20;;
38034;SDS011;23841;48.524;1.342;2023-04-15T00:22:53;3.10;;;1.23;;
38034;SDS011;23841;48.524;1.342;2023-04-15T00:25:19;3.22;;;1.10;;
38034;SDS011;23841;48.524;1.342;2023-04-15T00:27:45;2.03;;;1.05;;
38034;SDS011;23841;48.524;1.342;2023-04-15T00:30:10;3.95;;;1.20;;
38034;SDS011;23841;48.524;1.342;2023-04-15T00:32:35;2.15;;;0.90;;
38034;SDS011;23841;48.524;1.342;2023-04-15T00:35:01;3.08;;;0.75;;
38034;SDS011;23841;48.524;1.342;2023-04-15T00:37:27;1.65;;;0.52;;
38034;SDS011;23841;48.524;1.342;2023-04-15T00:39:53;2.20;;;0.90;;
38034;SDS011;23841;48.524;1.342;2023-04-15T00:42:18;2.80;;;0.90;;
38034;SDS011;23841;48.524;1.342;2023-04-15T00:44:45;2.55;;;0.73;;
38034;SDS011;23841;48.524;1.342;2023-04-15T00:47:11;2.20;;;0.60;;
38034;SDS011;23841;48.524;1.342;2023-04-15T00:49:36;2.75;;;0.85;;
38034;SDS011;23841;48.524;1.342;2023-04-15T00:52:02;2.00;;;0.70;;
38034;SDS011;23841;48.524;1.342;2023-04-15T00:54:28;1.50;;;0.60;;
38034;SDS011;23841;48.524;1.342;2023-04-15T00:56:53;0.85;;;0.50;;
38034;SDS011;23841;48.524;1.342;2023-04-15T00:59:19;1.05;;;0.70;;
38034;SDS011;23841;48.524;1.342;2023-04-15T01:01:45;1.27;;;0.57;;
38034;SDS011;23841;48.524;1.342;2023-04-15T01:04:11;0.63;;;0.30;;
38034;SDS011;23841;48.524;1.342;2023-04-15T01:06:37;2.47;;;0.40;;
38034;SDS011;23841;48.524;1.342;2023-04-15T01:09:02;1.23;;;0.57;;
38034;SDS011;23841;48.524;1.342;2023-04-15T01:11:28;1.13;;;0.47;;
38034;SDS011;23841;48.524;1.342;2023-04-15T01:13:54;1.38;;;0.43;;
38034;SDS011;23841;48.524;1.342;2023-04-15T01:16:21;1.88;;;0.73;;
38034;SDS011;23841;48.524;1.342;2023-04-15T01:18:47;1.00;;;0.40;;
38034;SDS011;23841;48.524;1.342;2023-04-15T01:21:13;1.67;;;0.50;;
38034;SDS011;23841;48.524;1.342;2023-04-15T01:23:38;2.35;;;0.60;;
38034;SDS011;23841;48.524;1.342;2023-04-15T01:26:04;0.68;;;0.40;;
38034;SDS011;23841;48.524;1.342;2023-04-15T01:28:32;1.10;;;0.50;;
38034;SDS011;23841;48.524;1.342;2023-04-15T01:31:11;2.08;;;0.50;;
38034;SDS011;23841;48.524;1.342;2023-04-15T01:33:38;0.40;;;0.25;;
38034;SDS011;23841;48.524;1.342;2023-04-15T01:36:05;1.58;;;0.50;;
38034;SDS011;23841;48.524;1.342;2023-04-15T01:38:32;3.22;;;0.50;;
38034;SDS011;23841;48.524;1.342;2023-04-15T01:40:58;1.95;;;0.90;;
38034;SDS011;23841;48.524;1.342;2023-04-15T01:43:26;2.40;;;0.80;;
38034;SDS011;23841;48.524;1.342;2023-04-15T01:45:52;2.10;;;0.65;;
38034;SDS011;23841;48.524;1.342;2023-04-15T01:48:18;1.77;;;0.57;;
38034;SDS011;23841;48.524;1.342;2023-04-15T01:50:43;2.60;;;0.73;;
38034;SDS011;23841;48.524;1.342;2023-04-15T01:53:09;1.48;;;0.63;;
38034;SDS011;23841;48.524;1.342;2023-04-15T01:55:34;2.72;;;1.00;;
38034;SDS011;23841;48.524;1.342;2023-04-15T01:58:01;2.95;;;0.60;;
38034;SDS011;23841;48.524;1.342;2023-04-15T02:00:26;3.25;;;0.70;;
38034;SDS011;23841;48.524;1.342;2023-04-15T02:02:52;1.75;;;0.60;;
38034;SDS011;23841;48.524;1.342;2023-04-15T02:05:18;2.50;;;0.60;;
38034;SDS011;23841;48.524;1.342;2023-04-15T02:07:44;2.67;;;0.52;;
38034;SDS011;23841;48.524;1.342;2023-04-15T02:10:09;4.25;;;1.00;;
38034;SDS011;23841;48.524;1.342;2023-04-15T02:12:37;2.38;;;0.70;;
38034;SDS011;23841;48.524;1.342;2023-04-15T02:15:03;1.92;;;0.65;;
38034;SDS011;23841;48.524;1.342;2023-04-15T02:17:29;1.00;;;0.38;;
38034;SDS011;23841;48.524;1.342;2023-04-15T02:19:55;2.20;;;0.50;;
38034;SDS011;23841;48.524;1.342;2023-04-15T02:22:21;0.68;;;0.30;;
38034;SDS011;23841;48.524;1.342;2023-04-15T02:24:46;1.63;;;0.40;;
38034;SDS011;23841;48.524;1.342;2023-04-15T02:27:15;1.10;;;0.32;;
38034;SDS011;23841;48.524;1.342;2023-04-15T02:29:44;2.47;;;0.60;;
38034;SDS011;23841;48.524;1.342;2023-04-15T02:32:10;3.78;;;0.55;;
38034;SDS011;23841;48.524;1.342;2023-04-15T02:34:39;3.05;;;0.80;;
38034;SDS011;23841;48.524;1.342;2023-04-15T02:37:07;2.15;;;0.50;;
38034;SDS011;23841;48.524;1.342;2023-04-15T02:39:36;3.83;;;0.60;;
38034;SDS011;23841;48.524;1.342;2023-04-15T02:42:02;1.42;;;0.43;;
38034;SDS011;23841;48.524;1.342;2023-04-15T02:44:29;1.27;;;0.50;;
38034;SDS011;23841;48.524;1.342;2023-04-15T02:46:55;2.47;;;0.73;;
38034;SDS011;23841;48.524;1.342;2023-04-15T02:49:20;1.67;;;0.60;;
38034;SDS011;23841;48.524;1.342;2023-04-15T02:51:47;3.30;;;0.88;;
38034;SDS011;23841;48.524;1.342;2023-04-15T02:54:17;1.73;;;0.60;;
38034;SDS011;23841;48.524;1.342;2023-04-15T02:56:43;4.68;;;1.20;;
38034;SDS011;23841;48.524;1.342;2023-04-15T02:59:09;4.00;;;0.70;;
38034;SDS011;23841;48.524;1.342;2023-04-15T03:01:36;2.65;;;0.47;;
38034;SDS011;23841;48.524;1.342;2023-04-15T03:04:01;2.38;;;0.60;;
38034;SDS011;23841;48.524;1.342;2023-04-15T03:06:27;3.78;;;0.60;;
38034;SDS011;23841;48.524;1.342;2023-04-15T03:08:52;1.08;;;0.40;;
38034;SDS011;23841;48.524;1.342;2023-04-15T03:11:18;1.95;;;0.55;;
38034;SDS011;23841;48.524;1.342;2023-04-15T03:13:44;1.70;;;0.70;;
38034;SDS011;23841;48.524;1.342;2023-04-15T03:16:09;2.97;;;0.55;;
38034;SDS011;23841;48.524;1.342;2023-04-15T03:18:35;4.53;;;0.75;;
38034;SDS011;23841;48.524;1.342;2023-04-15T03:21:00;7.07;;;1.05;;
38034;SDS011;23841;48.524;1.342;2023-04-15T03:23:26;5.53;;;0.82;;
38034;SDS011;23841;48.524;1.342;2023-04-15T03:25:52;1.92;;;0.60;;
38034;SDS011;23841;48.524;1.342;2023-04-15T03:28:19;2.38;;;1.00;;
38034;SDS011;23841;48.524;1.342;2023-04-15T03:30:45;1.98;;;0.68;;
38034;SDS011;23841;48.524;1.342;2023-04-15T03:33:10;0.20;;;0.20;;
38034;SDS011;23841;48.524;1.342;2023-04-15T03:35:36;2.00;;;0.80;;
38034;SDS011;23841;48.524;1.342;2023-04-15T03:38:02;1.35;;;0.45;;
38034;SDS011;23841;48.524;1.342;2023-04-15T03:40:27;0.77;;;0.40;;
38034;SDS011;23841;48.524;1.342;2023-04-15T03:42:52;1.65;;;0.50;;
38034;SDS011;23841;48.524;1.342;2023-04-15T03:45:18;1.92;;;0.75;;
38034;SDS011;23841;48.524;1.342;2023-04-15T03:47:43;1.58;;;0.35;;
38034;SDS011;23841;48.524;1.342;2023-04-15T03:50:09;1.30;;;0.60;;
38034;SDS011;23841;48.524;1.342;2023-04-15T03:52:35;1.88;;;0.50;;
38034;SDS011;23841;48.524;1.342;2023-04-15T03:55:00;1.25;;;0.47;;
38034;SDS011;23841;48.524;1.342;2023-04-15T03:57:26;2.20;;;0.40;;
38034;SDS011;23841;48.524;1.342;2023-04-15T03:59:51;4.10;;;0.63;;
38034;SDS011;23841;48.524;1.342;2023-04-15T04:02:17;2.90;;;0.50;;
38034;SDS011;23841;48.524;1.342;2023-04-15T04:04:42;1.45;;;0.50;;
38034;SDS011;23841;48.524;1.342;2023-04-15T04:07:08;1.50;;;0.77;;
38034;SDS011;23841;48.524;1.342;2023-04-15T04:09:39;0.82;;;0.50;;
38034;SDS011;23841;48.524;1.342;2023-04-15T04:12:06;1.42;;;0.50;;
38034;SDS011;23841;48.524;1.342;2023-04-15T04:14:31;1.83;;;0.57;;
38034;SDS011;23841;48.524;1.342;2023-04-15T04:16:57;1.42;;;0.55;;
38034;SDS011;23841;48.524;1.342;2023-04-15T04:19:22;1.35;;;0.60;;
38034;SDS011;23841;48.524;1.342;2023-04-15T04:21:47;2.85;;;0.65;;
38034;SDS011;23841;48.524;1.342;2023-04-15T04:24:13;0.85;;;0.30;;
38034;SDS011;23841;48.524;1.342;2023-04-15T04:26:38;2.33;;;0.60;;
38034;SDS011;23841;48.524;1.342;2023-04-15T04:29:03;1.45;;;0.38;;
38034;SDS011;23841;48.524;1.342;2023-04-15T04:31:29;0.90;;;0.50;;
38034;SDS011;23841;48.524;1.342;2023-04-15T04:33:54;2.10;;;0.80;;
38034;SDS011;23841;48.524;1.342;2023-04-15T04:36:20;1.85;;;0.43;;
38034;SDS011;23841;48.524;1.342;2023-04-15T04:38:45;1.25;;;0.50;;
38034;SDS011;23841;48.524;1.342;2023-04-15T04:41:11;2.08;;;0.60;;
38034;SDS011;23841;48.524;1.342;2023-04-15T04:43:36;2.92;;;0.70;;
38034;SDS011;23841;48.524;1.342;2023-04-15T04:46:01;1.33;;;0.50;;
38034;SDS011;23841;48.524;1.342;2023-04-15T04:48:27;3.00;;;0.77;;
38034;SDS011;23841;48.524;1.342;2023-04-15T04:50:52;2.17;;;0.85;;
38034;SDS011;23841;48.524;1.342;2023-04-15T04:53:18;0.95;;;0.70;;
38034;SDS011;23841;48.524;1.342;2023-04-15T04:55:43;2.55;;;0.88;;
38034;SDS011;23841;48.524;1.342;2023-04-15T04:58:09;2.38;;;0.60;;
38034;SDS011;23841;48.524;1.342;2023-04-15T05:00:34;2.70;;;0.60;;
38034;SDS011;23841;48.524;1.342;2023-04-15T05:03:01;4.15;;;1.30;;
38034;SDS011;23841;48.524;1.342;2023-04-15T05:05:27;2.75;;;0.60;;
38034;SDS011;23841;48.524;1.342;2023-04-15T05:07:52;2.00;;;0.85;;
38034;SDS011;23841;48.524;1.342;2023-04-15T05:10:18;1.95;;;0.57;;
38034;SDS011;23841;48.524;1.342;2023-04-15T05:12:43;2.95;;;0.93;;
38034;SDS011;23841;48.524;1.342;2023-04-15T05:15:09;2.50;;;1.10;;
38034;SDS011;23841;48.524;1.342;2023-04-15T05:17:34;1.00;;;0.70;;
38034;SDS011;23841;48.524;1.342;2023-04-15T05:20:00;2.97;;;0.88;;
38034;SDS011;23841;48.524;1.342;2023-04-15T05:22:27;1.48;;;0.68;;
38034;SDS011;23841;48.524;1.342;2023-04-15T05:24:52;2.40;;;0.80;;
38034;SDS011;23841;48.524;1.342;2023-04-15T05:27:17;1.85;;;0.80;;
38034;SDS011;23841;48.524;1.342;2023-04-15T05:29:43;1.70;;;0.90;;
38034;SDS011;23841;48.524;1.342;2023-04-15T05:32:09;1.85;;;0.70;;
38034;SDS011;23841;48.524;1.342;2023-04-15T05:34:35;1.17;;;0.60;;
38034;SDS011;23841;48.524;1.342;2023-04-15T05:37:00;3.03;;;0.88;;
38034;SDS011;23841;48.524;1.342;2023-04-15T05:39:26;1.88;;;0.73;;
38034;SDS011;23841;48.524;1.342;2023-04-15T05:41:51;2.08;;;0.90;;
38034;SDS011;23841;48.524;1.342;2023-04-15T05:44:17;2.90;;;0.80;;
38034;SDS011;23841;48.524;1.342;2023-04-15T05:46:42;3.00;;;0.82;;
38034;SDS011;23841;48.524;1.342;2023-04-15T05:49:08;2.42;;;0.98;;
38034;SDS011;23841;48.524;1.342;2023-04-15T05:51:33;2.42;;;0.68;;
38034;SDS011;23841;48.524;1.342;2023-04-15T05:53:59;2.83;;;0.80;;
38034;SDS011;23841;48.524;1.342;2023-04-15T05:56:24;1.25;;;0.70;;
38034;SDS011;23841;48.524;1.342;2023-04-15T05:58:51;2.08;;;0.73;;
38034;SDS011;23841;48.524;1.342;2023-04-15T06:01:16;2.10;;;0.75;;
38034;SDS011;23841;48.524;1.342;2023-04-15T06:03:42;2.17;;;1.08;;
38034;SDS011;23841;48.524;1.342;2023-04-15T06:06:07;2.47;;;0.93;;
38034;SDS011;23841;48.524;1.342;2023-04-15T06:08:33;3.70;;;0.80;;
38034;SDS011;23841;48.524;1.342;2023-04-15T06:10:59;1.23;;;0.65;;
38034;SDS011;23841;48.524;1.342;2023-04-15T06:13:25;2.10;;;0.90;;
38034;SDS011;23841;48.524;1.342;2023-04-15T06:15:51;4.57;;;0.98;;
38034;SDS011;23841;48.524;1.342;2023-04-15T06:18:17;2.03;;;0.90;;
38034;SDS011;23841;48.524;1.342;2023-04-15T06:20:43;1.77;;;0.80;;
38034;SDS011;23841;48.524;1.342;2023-04-15T06:23:08;3.60;;;0.93;;
38034;SDS011;23841;48.524;1.342;2023-04-15T06:25:33;4.60;;;1.08;;
38034;SDS011;23841;48.524;1.342;2023-04-15T06:27:59;5.00;;;1.45;;
38034;SDS011;23841;48.524;1.342;2023-04-15T06:30:24;3.10;;;1.05;;
38034;SDS011;23841;48.524;1.342;2023-04-15T06:32:50;2.53;;;1.10;;
38034;SDS011;23841;48.524;1.342;2023-04-15T06:35:15;2.35;;;1.00;;
38034;SDS011;23841;48.524;1.342;2023-04-15T06:37:41;2.78;;;1.17;;
38034;SDS011;23841;48.524;1.342;2023-04-15T06:40:07;3.92;;;1.00;;
38034;SDS011;23841;48.524;1.342;2023-04-15T06:42:34;2.33;;;0.80;;
38034;SDS011;23841;48.524;1.342;2023-04-15T06:45:01;4.13;;;1.10;;
38034;SDS011;23841;48.524;1.342;2023-04-15T06:47:26;4.75;;;1.52;;
38034;SDS011;23841;48.524;1.342;2023-04-15T06:49:52;4.50;;;1.15;;
38034;SDS011;23841;48.524;1.342;2023-04-15T06:52:17;1.48;;;0.80;;
38034;SDS011;23841;48.524;1.342;2023-04-15T06:54:43;4.35;;;1.55;;
38034;SDS011;23841;48.524;1.342;2023-04-15T06:57:08;2.35;;;0.80;;
38034;SDS011;23841;48.524;1.342;2023-04-15T06:59:34;4.93;;;1.00;;
38034;SDS011;23841;48.524;1.342;2023-04-15T07:02:00;4.10;;;1.25;;
38034;SDS011;23841;48.524;1.342;2023-04-15T07:04:25;2.88;;;1.23;;
38034;SDS011;23841;48.524;1.342;2023-04-15T07:06:52;3.67;;;1.20;;
38034;SDS011;23841;48.524;1.342;2023-04-15T07:09:18;2.67;;;1.00;;
38034;SDS011;23841;48.524;1.342;2023-04-15T07:11:43;4.25;;;1.13;;
38034;SDS011;23841;48.524;1.342;2023-04-15T07:14:09;3.90;;;1.00;;
38034;SDS011;23841;48.524;1.342;2023-04-15T07:16:35;6.03;;;1.00;;
38034;SDS011;23841;48.524;1.342;2023-04-15T07:19:00;3.00;;;1.20;;
38034;SDS011;23841;48.524;1.342;2023-04-15T07:21:26;4.90;;;1.38;;
38034;SDS011;23841;48.524;1.342;2023-04-15T07:23:51;4.10;;;1.20;;
38034;SDS011;23841;48.524;1.342;2023-04-15T07:26:17;6.57;;;1.55;;
38034;SDS011;23841;48.524;1.342;2023-04-15T07:28:42;2.85;;;1.10;;
38034;SDS011;23841;48.524;1.342;2023-04-15T07:31:08;2.75;;;1.08;;
38034;SDS011;23841;48.524;1.342;2023-04-15T07:33:33;1.73;;;1.00;;
38034;SDS011;23841;48.524;1.342;2023-04-15T07:35:58;3.28;;;1.00;;
38034;SDS011;23841;48.524;1.342;2023-04-15T07:38:24;2.40;;;1.27;;
38034;SDS011;23841;48.524;1.342;2023-04-15T07:40:50;3.13;;;0.98;;
38034;SDS011;23841;48.524;1.342;2023-04-15T07:43:15;3.40;;;1.02;;
38034;SDS011;23841;48.524;1.342;2023-04-15T07:45:41;4.57;;;1.20;;
38034;SDS011;23841;48.524;1.342;2023-04-15T07:48:06;2.70;;;1.10;;
38034;SDS011;23841;48.524;1.342;2023-04-15T07:50:32;1.67;;;1.10;;
38034;SDS011;23841;48.524;1.342;2023-04-15T07:52:57;2.95;;;1.10;;
38034;SDS011;23841;48.524;1.342;2023-04-15T07:55:23;2.97;;;1.15;;
38034;SDS011;23841;48.524;1.342;2023-04-15T07:57:48;3.40;;;1.10;;
38034;SDS011;23841;48.524;1.342;2023-04-15T08:00:14;3.03;;;1.10;;
38034;SDS011;23841;48.524;1.342;2023-04-15T08:02:40;3.83;;;1.33;;
38034;SDS011;23841;48.524;1.342;2023-04-15T08:05:07;4.88;;;1.42;;
38034;SDS011;23841;48.524;1.342;2023-04-15T08:07:33;3.55;;;1.20;;
38034;SDS011;23841;48.524;1.342;2023-04-15T08:09:59;4.95;;;1.25;;
38034;SDS011;23841;48.524;1.342;2023-04-15T08:12:24;4.75;;;1.35;;
38034;SDS011;23841;48.524;1.342;2023-04-15T08:14:50;2.25;;;1.30;;
38034;SDS011;23841;48.524;1.342;2023-04-15T08:17:16;3.90;;;1.33;;
38034;SDS011;23841;48.524;1.342;2023-04-15T08:19:41;2.25;;;1.42;;
38034;SDS011;23841;48.524;1.342;2023-04-15T08:22:07;2.42;;;0.88;;
38034;SDS011;23841;48.524;1.342;2023-04-15T08:24:32;1.92;;;1.05;;
38034;SDS011;23841;48.524;1.342;2023-04-15T08:26:58;4.45;;;1.27;;
38034;SDS011;23841;48.524;1.342;2023-04-15T08:29:24;2.55;;;1.20;;
38034;SDS011;23841;48.524;1.342;2023-04-15T08:31:49;3.17;;;1.02;;
38034;SDS011;23841;48.524;1.342;2023-04-15T08:34:15;4.22;;;1.42;;
38034;SDS011;23841;48.524;1.342;2023-04-15T08:36:42;4.10;;;1.60;;
38034;SDS011;23841;48.524;1.342;2023-04-15T08:39:09;2.17;;;0.98;;
38034;SDS011;23841;48.524;1.342;2023-04-15T08:42:09;4.10;;;1.33;;
38034;SDS011;23841;48.524;1.342;2023-04-15T08:44:32;2.10;;;1.33;;
38034;SDS011;23841;48.524;1.342;2023-04-15T08:47:01;2.45;;;0.90;;
38034;SDS011;23841;48.524;1.342;2023-04-15T08:49:28;1.92;;;0.98;;
38034;SDS011;23841;48.524;1.342;2023-04-15T08:51:54;2.17;;;0.85;;
38034;SDS011;23841;48.524;1.342;2023-04-15T08:54:22;1.58;;;1.08;;
38034;SDS011;23841;48.524;1.342;2023-04-15T08:56:47;1.90;;;1.00;;
38034;SDS011;23841;48.524;1.342;2023-04-15T08:59:14;3.45;;;1.15;;
38034;SDS011;23841;48.524;1.342;2023-04-15T09:01:40;2.08;;;0.90;;
38034;SDS011;23841;48.524;1.342;2023-04-15T09:04:06;2.03;;;1.13;;
38034;SDS011;23841;48.524;1.342;2023-04-15T09:06:32;3.95;;;1.17;;
38034;SDS011;23841;48.524;1.342;2023-04-15T09:08:58;2.15;;;1.00;;
38034;SDS011;23841;48.524;1.342;2023-04-15T09:11:24;2.13;;;1.25;;
38034;SDS011;23841;48.524;1.342;2023-04-15T09:13:55;1.60;;;0.70;;
38034;SDS011;23841;48.524;1.342;2023-04-15T09:16:21;2.50;;;0.98;;
38034;SDS011;23841;48.524;1.342;2023-04-15T09:18:47;3.13;;;1.00;;
38034;SDS011;23841;48.524;1.342;2023-04-15T09:21:14;3.67;;;1.65;;
38034;SDS011;23841;48.524;1.342;2023-04-15T09:23:53;2.05;;;0.80;;
38034;SDS011;23841;48.524;1.342;2023-04-15T09:26:29;1.60;;;0.80;;
38034;SDS011;23841;48.524;1.342;2023-04-15T09:29:06;1.35;;;0.77;;
38034;SDS011;23841;48.524;1.342;2023-04-15T09:31:33;3.15;;;0.95;;
38034;SDS011;23841;48.524;1.342;2023-04-15T09:33:59;3.78;;;0.95;;
38034;SDS011;23841;48.524;1.342;2023-04-15T09:36:25;4.22;;;0.90;;
38034;SDS011;23841;48.524;1.342;2023-04-15T09:38:57;2.58;;;1.25;;
38034;SDS011;23841;48.524;1.342;2023-04-15T09:41:24;2.00;;;0.75;;
38034;SDS011;23841;48.524;1.342;2023-04-15T09:43:50;1.13;;;0.70;;
38034;SDS011;23841;48.524;1.342;2023-04-15T09:46:16;2.50;;;0.80;;
38034;SDS011;23841;48.524;1.342;2023-04-15T09:48:41;2.85;;;0.77;;
38034;SDS011;23841;48.524;1.342;2023-04-15T09:51:07;2.85;;;0.80;;
38034;SDS011;23841;48.524;1.342;2023-04-15T09:53:33;2.38;;;0.90;;
38034;SDS011;23841;48.524;1.342;2023-04-15T09:56:03;3.13;;;0.82;;
38034;SDS011;23841;48.524;1.342;2023-04-15T09:58:32;1.50;;;0.70;;
38034;SDS011;23841;48.524;1.342;2023-04-15T10:00:59;1.90;;;0.70;;
38034;SDS011;23841;48.524;1.342;2023-04-15T10:03:27;1.35;;;0.50;;
38034;SDS011;23841;48.524;1.342;2023-04-15T10:05:55;1.13;;;0.55;;
38034;SDS011;23841;48.524;1.342;2023-04-15T10:08:23;1.17;;;0.75;;
38034;SDS011;23841;48.524;1.342;2023-04-15T10:10:54;1.33;;;0.70;;
38034;SDS011;23841;48.524;1.342;2023-04-15T10:13:21;1.42;;;0.70;;
38034;SDS011;23841;48.524;1.342;2023-04-15T10:15:58;6.70;;;0.63;;
38034;SDS011;23841;48.524;1.342;2023-04-15T10:18:28;3.05;;;0.70;;
38034;SDS011;23841;48.524;1.342;2023-04-15T10:20:59;0.88;;;0.50;;
38034;SDS011;23841;48.524;1.342;2023-04-15T10:23:25;1.48;;;0.60;;
38034;SDS011;23841;48.524;1.342;2023-04-15T10:25:52;2.35;;;0.75;;
38034;SDS011;23841;48.524;1.342;2023-04-15T10:28:19;4.97;;;0.95;;
38034;SDS011;23841;48.524;1.342;2023-04-15T10:30:46;1.63;;;0.70;;
38034;SDS011;23841;48.524;1.342;2023-04-15T10:33:14;4.00;;;0.80;;
38034;SDS011;23841;48.524;1.342;2023-04-15T10:35:44;1.83;;;0.80;;
38034;SDS011;23841;48.524;1.342;2023-04-15T10:43:48;3.15;;;0.82;;
38034;SDS011;23841;48.524;1.342;2023-04-15T10:46:37;6.05;;;1.23;;
38034;SDS011;23841;48.524;1.342;2023-04-15T10:49:08;1.25;;;0.90;;
38034;SDS011;23841;48.524;1.342;2023-04-15T10:51:40;2.08;;;0.63;;
38034;SDS011;23841;48.524;1.342;2023-04-15T10:54:14;1.63;;;0.80;;
38034;SDS011;23841;48.524;1.342;2023-04-15T10:56:41;4.38;;;0.90;;
38034;SDS011;23841;48.524;1.342;2023-04-15T10:59:08;0.82;;;0.60;;
38034;SDS011;23841;48.524;1.342;2023-04-15T11:07:39;1.63;;;0.77;;
38034;SDS011;23841;48.524;1.342;2023-04-15T11:12:41;1.33;;;0.73;;
38034;SDS011;23841;48.524;1.342;2023-04-15T11:18:17;2.17;;;0.80;;
38034;SDS011;23841;48.524;1.342;2023-04-15T11:20:52;2.35;;;0.90;;
38034;SDS011;23841;48.524;1.342;2023-04-15T11:25:56;1.60;;;0.93;;
38034;SDS011;23841;48.524;1.342;2023-04-15T11:28:26;3.05;;;1.10;;
38034;SDS011;23841;48.524;1.342;2023-04-15T11:30:52;2.25;;;1.02;;
38034;SDS011;23841;48.524;1.342;2023-04-15T11:33:19;1.85;;;1.00;;
38034;SDS011;23841;48.524;1.342;2023-04-15T11:35:46;4.03;;;1.10;;
38034;SDS011;23841;48.524;1.342;2023-04-15T11:38:12;2.22;;;1.30;;
38034;SDS011;23841;48.524;1.342;2023-04-15T11:40:39;2.47;;;1.05;;
38034;SDS011;23841;48.524;1.342;2023-04-15T11:43:07;3.03;;;1.00;;
38034;SDS011;23841;48.524;1.342;2023-04-15T11:45:32;1.77;;;0.90;;
38034;SDS011;23841;48.524;1.342;2023-04-15T11:48:05;2.58;;;1.10;;
38034;SDS011;23841;48.524;1.342;2023-04-15T11:50:32;2.03;;;1.10;;
38034;SDS011;23841;48.524;1.342;2023-04-15T11:52:58;2.65;;;1.25;;
38034;SDS011;23841;48.524;1.342;2023-04-15T11:55:25;2.47;;;1.20;;
38034;SDS011;23841;48.524;1.342;2023-04-15T12:00:56;5.35;;;1.20;;
38034;SDS011;23841;48.524;1.342;2023-04-15T12:11:16;1.67;;;0.90;;
38034;SDS011;23841;48.524;1.342;2023-04-15T12:14:06;3.97;;;1.00;;
38034;SDS011;23841;48.524;1.342;2023-04-15T12:16:33;1.38;;;0.85;;
38034;SDS011;23841;48.524;1.342;2023-04-15T12:19:10;1.48;;;0.90;;
38034;SDS011;23841;48.524;1.342;2023-04-15T12:21:41;2.35;;;1.00;;
38034;SDS011;23841;48.524;1.342;2023-04-15T12:24:09;2.63;;;1.02;;
38034;SDS011;23841;48.524;1.342;2023-04-15T12:29:07;2.30;;;0.82;;
38034;SDS011;23841;48.524;1.342;2023-04-15T12:31:36;3.28;;;1.08;;
38034;SDS011;23841;48.524;1.342;2023-04-15T12:34:10;1.63;;;0.95;;
38034;SDS011;23841;48.524;1.342;2023-04-15T12:36:36;2.70;;;0.93;;
38034;SDS011;23841;48.524;1.342;2023-04-15T12:39:02;2.40;;;1.02;;
38034;SDS011;23841;48.524;1.342;2023-04-15T12:41:28;4.40;;;1.30;;
38034;SDS011;23841;48.524;1.342;2023-04-15T12:43:54;2.20;;;0.90;;
38034;SDS011;23841;48.524;1.342;2023-04-15T12:46:19;2.63;;;1.00;;
38034;SDS011;23841;48.524;1.342;2023-04-15T12:48:45;3.85;;;1.52;;
38034;SDS011;23841;48.524;1.342;2023-04-15T12:51:11;2.45;;;0.90;;
38034;SDS011;23841;48.524;1.342;2023-04-15T12:53:36;2.83;;;0.88;;
38034;SDS011;23841;48.524;1.342;2023-04-15T12:56:02;2.47;;;1.20;;
38034;SDS011;23841;48.524;1.342;2023-04-15T12:58:27;2.25;;;1.00;;
38034;SDS011;23841;48.524;1.342;2023-04-15T13:00:53;1.45;;;0.95;;
38034;SDS011;23841;48.524;1.342;2023-04-15T13:03:18;1.77;;;0.80;;
38034;SDS011;23841;48.524;1.342;2023-04-15T13:05:44;1.75;;;0.93;;
38034;SDS011;23841;48.524;1.342;2023-04-15T13:08:09;1.42;;;0.90;;
38034;SDS011;23841;48.524;1.342;2023-04-15T13:10:35;1.88;;;0.98;;
38034;SDS011;23841;48.524;1.342;2023-04-15T13:13:01;0.98;;;0.70;;
38034;SDS011;23841;48.524;1.342;2023-04-15T13:15:27;1.50;;;0.80;;
38034;SDS011;23841;48.524;1.342;2023-04-15T13:17:52;1.67;;;0.82;;
38034;SDS011;23841;48.524;1.342;2023-04-15T13:20:18;0.95;;;0.50;;
38034;SDS011;23841;48.524;1.342;2023-04-15T13:22:43;3.28;;;0.80;;
38034;SDS011;23841;48.524;1.342;2023-04-15T13:25:09;2.15;;;0.60;;
38034;SDS011;23841;48.524;1.342;2023-04-15T13:27:35;1.60;;;0.57;;
38034;SDS011;23841;48.524;1.342;2023-04-15T13:30:01;1.73;;;0.70;;
38034;SDS011;23841;48.524;1.342;2023-04-15T13:32:27;0.73;;;0.50;;
38034;SDS011;23841;48.524;1.342;2023-04-15T13:34:53;1.75;;;0.60;;
38034;SDS011;23841;48.524;1.342;2023-04-15T13:37:21;1.13;;;0.60;;
38034;SDS011;23841;48.524;1.342;2023-04-15T13:39:50;1.08;;;0.55;;
38034;SDS011;23841;48.524;1.342;2023-04-15T13:42:16;1.55;;;0.63;;
38034;SDS011;23841;48.524;1.342;2023-04-15T13:44:41;3.28;;;0.90;;
38034;SDS011;23841;48.524;1.342;2023-04-15T13:47:07;1.83;;;0.70;;
38034;SDS011;23841;48.524;1.342;2023-04-15T13:49:33;1.02;;;0.60;;
38034;SDS011;23841;48.524;1.342;2023-04-15T13:51:58;1.27;;;0.82;;
38034;SDS011;23841;48.524;1.342;2023-04-15T13:54:24;0.90;;;0.65;;
38034;SDS011;23841;48.524;1.342;2023-04-15T13:56:49;0.95;;;0.80;;
38034;SDS011;23841;48.524;1.342;2023-04-15T13:59:15;1.67;;;0.80;;
38034;SDS011;23841;48.524;1.342;2023-04-15T14:01:40;4.28;;;1.05;;
38034;SDS011;23841;48.524;1.342;2023-04-15T14:04:05;1.63;;;0.98;;
38034;SDS011;23841;48.524;1.342;2023-04-15T14:06:31;2.75;;;1.00;;
38034;SDS011;23841;48.524;1.342;2023-04-15T14:08:56;2.80;;;1.30;;
38034;SDS011;23841;48.524;1.342;2023-04-15T14:11:22;4.38;;;1.00;;
38034;SDS011;23841;48.524;1.342;2023-04-15T14:13:47;2.33;;;0.98;;
38034;SDS011;23841;48.524;1.342;2023-04-15T14:16:13;2.67;;;0.88;;
38034;SDS011;23841;48.524;1.342;2023-04-15T14:18:38;3.42;;;1.10;;
38034;SDS011;23841;48.524;1.342;2023-04-15T14:21:04;2.17;;;1.25;;
38034;SDS011;23841;48.524;1.342;2023-04-15T14:23:31;2.72;;;1.15;;
38034;SDS011;23841;48.524;1.342;2023-04-15T14:25:56;2.88;;;1.13;;
38034;SDS011;23841;48.524;1.342;2023-04-15T14:28:22;1.05;;;0.75;;
38034;SDS011;23841;48.524;1.342;2023-04-15T14:30:48;1.75;;;0.80;;
38034;SDS011;23841;48.524;1.342;2023-04-15T14:33:17;1.75;;;1.02;;
38034;SDS011;23841;48.524;1.342;2023-04-15T14:35:43;2.95;;;0.80;;
38034;SDS011;23841;48.524;1.342;2023-04-15T14:38:08;1.88;;;0.95;;
38034;SDS011;23841;48.524;1.342;2023-04-15T14:40:35;3.58;;;1.00;;
38034;SDS011;23841;48.524;1.342;2023-04-15T14:43:01;1.40;;;0.80;;
38034;SDS011;23841;48.524;1.342;2023-04-15T14:45:27;2.38;;;1.10;;
38034;SDS011;23841;48.524;1.342;2023-04-15T14:47:53;3.65;;;1.27;;
38034;SDS011;23841;48.524;1.342;2023-04-15T14:50:19;3.28;;;1.08;;
38034;SDS011;23841;48.524;1.342;2023-04-15T14:52:45;3.47;;;1.15;;
38034;SDS011;23841;48.524;1.342;2023-04-15T14:55:11;2.85;;;0.98;;
38034;SDS011;23841;48.524;1.342;2023-04-15T14:57:37;1.48;;;0.80;;
38034;SDS011;23841;48.524;1.342;2023-04-15T15:00:04;2.05;;;1.10;;
38034;SDS011;23841;48.524;1.342;2023-04-15T15:02:31;3.70;;;1.10;;
38034;SDS011;23841;48.524;1.342;2023-04-15T15:05:00;1.23;;;0.80;;
38034;SDS011;23841;48.524;1.342;2023-04-15T15:07:26;2.97;;;1.10;;
38034;SDS011;23841;48.524;1.342;2023-04-15T15:09:52;2.55;;;1.00;;
38034;SDS011;23841;48.524;1.342;2023-04-15T15:12:18;3.28;;;1.10;;
38034;SDS011;23841;48.524;1.342;2023-04-15T15:14:44;2.42;;;1.15;;
38034;SDS011;23841;48.524;1.342;2023-04-15T15:17:09;2.53;;;1.33;;